Time;durP1;ratioP1;P1;durP2;ratioP2;P2;SDS_P1;SDS_P2;PMS_P1;PMS_P2;Temp;Humidity;BMP_temperature;BMP_pressure;BME280_temperature;BME280_humidity;BME280_pressure;Samples;Min_cycle;Max_cycle;Signal;HPM_P1;HPM_P2
2022/03/21 00:00:41;;;;;;;11.63;7.00;;;9.10;99.90;;;;;;5070526;28;20409;-65
2022/03/21 00:03:12;;;;;;;13.90;7.57;;;9.00;99.90;;;;;;5070281;28;20429;-65
2022/03/21 00:05:38;;;;;;;13.23;6.97;;;9.00;99.90;;;;;;5070564;28;20419;-67
2022/03/21 00:08:04;;;;;;;13.33;7.70;;;9.00;99.90;;;;;;5070393;28;20441;-65
2022/03/21 00:10:34;;;;;;;12.80;7.67;;;9.00;99.90;;;;;;5069875;28;20647;-65
2022/03/21 00:13:01;;;;;;;10.10;6.10;;;9.00;99.90;;;;;;5070129;28;20425;-65
2022/03/21 00:15:29;;;;;;;11.20;6.97;;;9.10;99.90;;;;;;5069806;28;20863;-65
2022/03/21 00:17:55;;;;;;;13.40;6.70;;;8.90;99.90;;;;;;5070159;28;20494;-65
2022/03/21 00:20:21;;;;;;;11.60;7.17;;;8.90;99.90;;;;;;5070289;28;20413;-66
2022/03/21 00:22:46;;;;;;;11.47;6.87;;;9.00;99.90;;;;;;5070366;28;20432;-66
2022/03/21 00:25:12;;;;;;;12.50;7.30;;;8.90;99.90;;;;;;5070127;28;20210;-66
2022/03/21 00:27:38;;;;;;;9.07;5.97;;;9.00;99.90;;;;;;5070076;28;20206;-65
2022/03/21 00:30:06;;;;;;;10.17;6.00;;;9.00;99.90;;;;;;5070135;28;20504;-65
2022/03/21 00:32:32;;;;;;;9.87;6.87;;;9.00;99.90;;;;;;5070167;28;20413;-65
2022/03/21 00:34:57;;;;;;;10.80;6.07;;;9.00;99.90;;;;;;5070258;28;20469;-65
2022/03/21 00:37:24;;;;;;;9.63;6.00;;;9.00;99.90;;;;;;5069979;28;20461;-66
2022/03/21 00:39:53;;;;;;;9.60;6.17;;;8.90;99.90;;;;;;5070245;28;20186;-65
2022/03/21 00:42:21;;;;;;;12.60;7.03;;;9.00;99.90;;;;;;5070049;28;20425;-66
2022/03/21 00:44:47;;;;;;;10.70;6.77;;;9.10;99.90;;;;;;5070065;28;20889;-64
2022/03/21 00:47:14;;;;;;;11.73;7.57;;;9.10;99.90;;;;;;5069634;28;20496;-65
2022/03/21 00:49:41;;;;;;;10.90;7.43;;;9.10;99.90;;;;;;5070068;28;20446;-65
2022/03/21 00:52:08;;;;;;;11.67;6.90;;;9.00;99.90;;;;;;5070050;28;20421;-64
2022/03/21 00:54:34;;;;;;;10.60;7.27;;;8.90;99.90;;;;;;5070069;28;20429;-65
2022/03/21 00:57:00;;;;;;;10.47;7.40;;;8.90;99.90;;;;;;5069518;28;20452;-65
2022/03/21 00:59:25;;;;;;;10.53;6.50;;;9.00;99.90;;;;;;5069979;28;20440;-65
2022/03/21 01:01:51;;;;;;;11.30;6.10;;;9.10;99.90;;;;;;5069924;28;20574;-65
2022/03/21 01:04:17;;;;;;;12.83;6.47;;;9.10;99.90;;;;;;5069882;28;20207;-65
2022/03/21 01:06:43;;;;;;;9.10;6.30;;;9.10;99.90;;;;;;5069957;28;20201;-65
2022/03/21 01:09:11;;;;;;;11.17;6.30;;;9.00;99.90;;;;;;5069758;28;20222;-65
2022/03/21 01:11:36;;;;;;;9.57;5.80;;;8.90;99.90;;;;;;5069572;28;20413;-65
2022/03/21 01:14:02;;;;;;;8.47;6.47;;;8.90;99.90;;;;;;5069686;28;20430;-65
2022/03/21 01:16:28;;;;;;;11.40;7.73;;;8.90;99.90;;;;;;5069702;28;20199;-66
2022/03/21 01:18:54;;;;;;;13.90;8.03;;;9.00;99.90;;;;;;5069645;28;20425;-65
2022/03/21 01:21:19;;;;;;;10.57;7.83;;;9.00;99.90;;;;;;5069468;28;20187;-65
2022/03/21 01:23:45;;;;;;;9.87;6.60;;;8.90;99.90;;;;;;5071991;28;20219;-64
2022/03/21 01:26:11;;;;;;;9.20;6.40;;;8.90;99.90;;;;;;5073567;28;20182;-65
2022/03/21 01:28:37;;;;;;;9.50;6.30;;;8.90;99.90;;;;;;5073259;28;20209;-65
2022/03/21 01:31:03;;;;;;;8.60;6.40;;;8.90;99.90;;;;;;5073282;28;20180;-66
2022/03/21 01:33:31;;;;;;;10.53;7.07;;;9.00;99.90;;;;;;5073462;28;20193;-64
2022/03/21 01:35:57;;;;;;;9.30;6.80;;;9.00;99.90;;;;;;5073268;28;20187;-67
2022/03/21 01:38:23;;;;;;;11.30;6.80;;;8.90;99.90;;;;;;5073138;28;20429;-66
2022/03/21 01:40:48;;;;;;;11.50;7.70;;;8.90;99.90;;;;;;5072776;28;20424;-64
2022/03/21 01:43:14;;;;;;;10.10;7.50;;;8.90;99.90;;;;;;5073139;28;20743;-66
2022/03/21 01:45:40;;;;;;;10.20;6.60;;;8.90;99.90;;;;;;5072965;28;20183;-65
2022/03/21 01:48:10;;;;;;;14.77;7.67;;;8.90;99.90;;;;;;5072825;28;20681;-65
2022/03/21 01:50:37;;;;;;;10.60;6.67;;;9.00;99.90;;;;;;5072904;28;20189;-64
2022/03/21 01:55:48;;;;;;;11.60;7.10;;;8.80;99.90;;;;;;5074355;28;20471;-66
2022/03/21 01:58:15;;;;;;;10.73;7.70;;;8.70;99.90;;;;;;5072641;28;20441;-64
2022/03/21 02:00:43;;;;;;;10.53;5.97;;;8.60;99.90;;;;;;5072729;28;20424;-66
2022/03/21 02:03:08;;;;;;;10.53;6.00;;;8.50;99.90;;;;;;5072674;28;20421;-65
2022/03/21 02:05:36;;;;;;;10.40;6.10;;;8.40;99.90;;;;;;5072669;28;20428;-65
2022/03/21 02:08:02;;;;;;;8.90;5.30;;;8.40;99.90;;;;;;5072304;28;20210;-65
2022/03/21 02:10:31;;;;;;;10.33;5.43;;;8.30;99.90;;;;;;5072337;28;20433;-65
2022/03/21 02:12:58;;;;;;;8.43;6.20;;;8.20;99.90;;;;;;5072513;28;20478;-64
2022/03/21 02:15:24;;;;;;;8.30;5.33;;;8.00;99.90;;;;;;5071857;28;20448;-64
2022/03/21 02:18:03;;;;;;;13.43;7.17;;;8.00;99.90;;;;;;5071980;28;20524;-64
2022/03/21 02:20:32;;;;;;;9.63;5.87;;;7.90;99.90;;;;;;5072345;28;20925;-65
2022/03/21 02:23:08;;;;;;;13.57;6.53;;;7.80;99.90;;;;;;5072091;28;20452;-65
2022/03/21 02:25:41;;;;;;;9.53;6.10;;;7.70;99.90;;;;;;5072438;28;20456;-64
2022/03/21 02:28:12;;;;;;;9.10;5.97;;;7.60;99.90;;;;;;5071957;28;20437;-64
2022/03/21 02:30:41;;;;;;;10.53;5.33;;;7.60;99.90;;;;;;5071660;28;20425;-64
2022/03/21 02:33:07;;;;;;;8.60;5.77;;;7.60;99.90;;;;;;5071678;28;20524;-65
2022/03/21 02:35:34;;;;;;;12.03;6.80;;;7.60;99.90;;;;;;5071998;28;20486;-64
2022/03/21 02:38:01;;;;;;;10.43;6.60;;;7.60;99.90;;;;;;5071840;28;20806;-64
2022/03/21 02:40:27;;;;;;;10.80;6.20;;;7.40;99.90;;;;;;5071902;28;20495;-65
2022/03/21 02:42:53;;;;;;;9.00;6.10;;;7.40;99.90;;;;;;5072007;28;20463;-65
2022/03/21 02:45:20;;;;;;;9.23;5.73;;;7.40;99.90;;;;;;5071579;28;20469;-64
2022/03/21 02:47:45;;;;;;;11.73;7.93;;;7.30;99.90;;;;;;5071629;28;20444;-64
2022/03/21 02:50:30;;;;;;;9.93;6.10;;;7.30;99.90;;;;;;5071966;28;20431;-65
2022/03/21 02:52:57;;;;;;;8.17;5.07;;;7.30;99.90;;;;;;5071795;28;20202;-64
2022/03/21 02:55:23;;;;;;;10.77;6.17;;;7.20;99.90;;;;;;5071657;28;21017;-65
2022/03/21 02:57:49;;;;;;;9.77;6.00;;;7.10;99.90;;;;;;5071247;28;20528;-65
2022/03/21 03:00:15;;;;;;;11.07;6.00;;;7.10;99.90;;;;;;5071481;28;20534;-65
2022/03/21 03:02:41;;;;;;;10.00;6.37;;;7.10;99.90;;;;;;5071548;28;20196;-66
2022/03/21 03:05:07;;;;;;;10.63;6.20;;;6.90;99.90;;;;;;5071311;28;20474;-65
2022/03/21 03:07:34;;;;;;;10.70;6.17;;;6.80;99.90;;;;;;5071467;28;20217;-64
2022/03/21 03:10:00;;;;;;;12.73;6.70;;;6.80;99.90;;;;;;5071329;28;20447;-65
2022/03/21 03:12:26;;;;;;;8.30;5.83;;;6.70;99.90;;;;;;5071222;28;20768;-65
2022/03/21 03:14:52;;;;;;;10.70;5.93;;;6.70;99.90;;;;;;5071255;28;20185;-64
2022/03/21 03:17:17;;;;;;;10.13;5.93;;;6.70;99.90;;;;;;5070757;28;20704;-65
2022/03/21 03:19:43;;;;;;;7.20;4.77;;;6.70;99.90;;;;;;5071237;28;20222;-64
2022/03/21 03:22:09;;;;;;;9.23;5.50;;;6.80;99.90;;;;;;5071164;28;20228;-64
2022/03/21 03:24:37;;;;;;;11.27;5.10;;;6.80;99.90;;;;;;5071124;28;20213;-64
2022/03/21 03:27:05;;;;;;;9.90;6.20;;;6.80;99.90;;;;;;5070789;28;20245;-65
2022/03/21 03:29:31;;;;;;;11.30;6.63;;;6.90;99.90;;;;;;5070993;28;20438;-64
2022/03/21 03:32:00;;;;;;;10.60;6.13;;;6.90;99.90;;;;;;5070976;28;20934;-65
2022/03/21 03:34:26;;;;;;;9.13;6.10;;;7.00;99.90;;;;;;5070014;28;20431;-65
2022/03/21 03:36:52;;;;;;;7.10;5.57;;;7.00;99.90;;;;;;5070542;28;20532;-65
2022/03/21 03:39:18;;;;;;;9.63;5.57;;;7.10;99.90;;;;;;5070900;28;20567;-64
2022/03/21 03:41:44;;;;;;;12.67;6.90;;;7.10;99.90;;;;;;5073306;28;20200;-65
2022/03/21 03:44:10;;;;;;;10.33;7.73;;;7.00;99.90;;;;;;5090573;28;20641;-65
2022/03/21 03:46:36;;;;;;;14.00;7.23;;;6.80;99.90;;;;;;5081608;28;20446;-64
2022/03/21 03:49:02;;;;;;;12.13;5.60;;;6.90;99.90;;;;;;5090875;28;20423;-64
2022/03/21 03:51:28;;;;;;;9.73;5.43;;;7.00;99.90;;;;;;5090988;28;20415;-64
2022/03/21 03:53:53;;;;;;;11.43;7.20;;;7.10;99.90;;;;;;5090792;28;20462;-64
2022/03/21 03:56:19;;;;;;;8.57;6.97;;;7.10;99.90;;;;;;5090665;28;20212;-65
2022/03/21 03:58:45;;;;;;;8.23;6.00;;;7.10;99.90;;;;;;5090562;28;20185;-65
2022/03/21 04:01:11;;;;;;;9.20;5.73;;;7.20;99.90;;;;;;5090928;28;20225;-65
2022/03/21 04:03:46;;;;;;;12.33;6.27;;;7.20;99.90;;;;;;5090676;28;20237;-65
2022/03/21 04:06:17;;;;;;;12.57;6.83;;;7.10;99.90;;;;;;5074154;28;20231;-63
2022/03/21 04:08:45;;;;;;;10.73;5.70;;;7.20;99.90;;;;;;5090342;28;20940;-65
2022/03/21 04:11:12;;;;;;;14.00;7.03;;;7.20;99.90;;;;;;5090577;28;20431;-64
2022/03/21 04:13:38;;;;;;;9.80;6.70;;;7.20;99.90;;;;;;5090698;28;20423;-65
2022/03/21 04:16:04;;;;;;;9.73;5.53;;;7.20;99.90;;;;;;5090419;28;20798;-65
2022/03/21 04:18:30;;;;;;;8.43;5.73;;;7.30;99.90;;;;;;5090459;28;20909;-64
2022/03/21 04:20:56;;;;;;;12.97;6.60;;;7.30;99.90;;;;;;5090463;28;20492;-65
2022/03/21 04:23:22;;;;;;;6.90;5.20;;;7.30;99.90;;;;;;5090422;28;20468;-65
2022/03/21 04:25:48;;;;;;;10.10;6.93;;;7.30;99.90;;;;;;5090402;28;20181;-65
2022/03/21 04:28:15;;;;;;;10.00;7.47;;;7.30;99.90;;;;;;5090412;28;20206;-64
2022/03/21 04:30:42;;;;;;;10.90;7.10;;;7.40;99.90;;;;;;5090568;28;20423;-65
2022/03/21 04:33:14;;;;;;;9.83;6.27;;;7.40;99.90;;;;;;5090542;28;20423;-64
2022/03/21 04:35:41;;;;;;;10.70;6.00;;;7.40;99.90;;;;;;5090303;28;20412;-64
2022/03/21 04:38:13;;;;;;;9.77;6.40;;;7.30;99.90;;;;;;5090147;28;20480;-64
2022/03/21 04:40:46;;;;;;;8.30;6.03;;;7.20;99.90;;;;;;5090502;28;20430;-64
2022/03/21 04:43:13;;;;;;;9.90;6.90;;;7.10;99.90;;;;;;5090227;28;20423;-64
2022/03/21 04:45:40;;;;;;;9.30;6.67;;;7.00;99.90;;;;;;5089693;28;20432;-64
2022/03/21 04:48:06;;;;;;;10.70;6.30;;;7.00;99.90;;;;;;5090211;28;20443;-65
2022/03/21 04:50:33;;;;;;;9.77;7.20;;;7.00;99.90;;;;;;5090601;28;20800;-64
2022/03/21 04:52:59;;;;;;;8.93;5.07;;;7.00;99.90;;;;;;5090373;28;20279;-64
2022/03/21 04:55:26;;;;;;;11.30;6.63;;;6.90;99.90;;;;;;5090327;28;20434;-65
2022/03/21 04:57:52;;;;;;;10.63;6.80;;;6.90;99.90;;;;;;5092959;28;20443;-64
2022/03/21 05:00:18;;;;;;;9.90;6.03;;;6.90;99.90;;;;;;5094291;28;20806;-64
2022/03/21 05:02:44;;;;;;;12.97;7.37;;;6.90;99.90;;;;;;5094069;28;20430;-65
2022/03/21 05:05:10;;;;;;;10.03;5.70;;;6.90;99.90;;;;;;5094217;28;20608;-64
2022/03/21 05:07:45;;;;;;;9.23;5.40;;;6.80;99.90;;;;;;5093812;28;20445;-64
2022/03/21 05:10:11;;;;;;;8.50;5.90;;;6.80;99.90;;;;;;5106263;22;20497;-85
2022/03/21 05:12:37;;;;;;;10.10;6.47;;;6.80;99.90;;;;;;5006965;28;20464;-83
2022/03/21 05:15:05;;;;;;;12.27;6.87;;;6.80;99.90;;;;;;5010632;28;20465;-83
2022/03/21 05:17:32;;;;;;;8.87;5.13;;;6.70;99.90;;;;;;5017248;28;20184;-83
2022/03/21 05:19:57;;;;;;;10.27;6.10;;;6.70;99.90;;;;;;5017155;28;20473;-82
2022/03/21 05:22:23;;;;;;;11.50;7.43;;;6.60;99.90;;;;;;5017260;28;20453;-83
2022/03/21 05:35:54;;;;;;;6.70;5.53;;;6.30;99.90;;;;;;5015096;28;20400;-83
2022/03/21 05:38:27;;;;;;;9.77;5.33;;;6.20;99.90;;;;;;5013611;28;20486;-83
2022/03/21 05:40:58;;;;;;;7.80;6.10;;;6.10;99.90;;;;;;5013486;28;20447;-83
2022/03/21 05:43:24;;;;;;;7.33;5.10;;;5.90;99.90;;;;;;5013505;28;20464;-82
2022/03/21 05:45:51;;;;;;;9.70;5.80;;;6.00;99.90;;;;;;5013305;28;20546;-83
2022/03/21 05:51:03;;;;;;;9.43;5.27;;;5.90;99.90;;;;;;5014795;28;20475;-83
2022/03/21 05:53:30;;;;;;;7.23;5.50;;;5.90;99.90;;;;;;5013393;28;20963;-82
2022/03/21 05:55:58;;;;;;;8.07;5.80;;;6.00;99.90;;;;;;5013447;28;20834;-83
2022/03/21 05:58:24;;;;;;;11.23;7.10;;;6.00;99.90;;;;;;5013012;28;20432;-83
2022/03/21 06:00:50;;;;;;;10.43;5.80;;;5.90;99.90;;;;;;5013167;28;20448;-83
2022/03/21 06:03:15;;;;;;;8.90;5.60;;;5.90;99.90;;;;;;5013336;28;20234;-83
2022/03/21 06:05:41;;;;;;;12.50;5.50;;;5.90;99.90;;;;;;5013138;28;20565;-83
2022/03/21 06:08:08;;;;;;;8.97;5.70;;;5.90;99.90;;;;;;5012117;28;20674;-83
2022/03/21 06:10:36;;;;;;;9.47;5.63;;;5.90;99.90;;;;;;5012828;28;20215;-83
2022/03/21 06:13:05;;;;;;;9.97;5.50;;;5.90;99.90;;;;;;5012889;28;20453;-83
2022/03/21 06:15:32;;;;;;;8.80;5.97;;;5.90;99.90;;;;;;5012787;28;20423;-83
2022/03/21 06:17:59;;;;;;;7.23;5.50;;;5.80;99.90;;;;;;5012848;28;20941;-83
2022/03/21 06:20:28;;;;;;;8.90;6.47;;;5.90;99.90;;;;;;5012637;28;20443;-83
2022/03/21 06:22:54;;;;;;;9.27;5.20;;;5.90;99.90;;;;;;5012808;28;20412;-83
2022/03/21 06:25:20;;;;;;;7.17;4.80;;;5.90;99.90;;;;;;5012440;28;20466;-83
2022/03/21 06:27:48;;;;;;;6.23;4.17;;;6.10;99.90;;;;;;5012568;28;20425;-83
2022/03/21 06:30:14;;;;;;;14.23;6.80;;;6.10;99.90;;;;;;5012531;28;20198;-83
2022/03/21 06:32:40;;;;;;;9.93;5.33;;;6.10;99.90;;;;;;5012679;28;20418;-83
2022/03/21 06:35:09;;;;;;;10.27;6.00;;;6.10;99.90;;;;;;5012467;28;21084;-83
2022/03/21 06:37:35;;;;;;;9.37;5.67;;;6.20;99.90;;;;;;5012380;28;20328;-82
2022/03/21 06:40:01;;;;;;;10.13;6.40;;;6.30;99.90;;;;;;5012217;28;20889;-82
2022/03/21 06:42:27;;;;;;;9.23;5.20;;;6.30;99.90;;;;;;5012407;28;20446;-83
2022/03/21 06:44:55;;;;;;;7.67;6.00;;;6.30;99.90;;;;;;5012301;28;20246;-83
2022/03/21 06:47:21;;;;;;;7.70;5.83;;;6.20;99.90;;;;;;5012092;28;20425;-82
2022/03/21 06:49:47;;;;;;;11.20;7.80;;;6.30;99.90;;;;;;5012209;28;20511;-83
2022/03/21 06:52:14;;;;;;;7.80;5.30;;;6.30;99.90;;;;;;5012100;28;20263;-83
2022/03/21 06:54:42;;;;;;;8.40;5.67;;;6.50;99.90;;;;;;5012097;28;20452;-83
2022/03/21 06:57:08;;;;;;;12.80;6.93;;;6.70;99.90;;;;;;5012033;28;20433;-84
2022/03/21 06:59:34;;;;;;;8.43;5.60;;;6.90;99.90;;;;;;5012441;28;20801;-83
2022/03/21 07:02:00;;;;;;;11.40;7.63;;;7.00;99.90;;;;;;5011912;28;20444;-83
2022/03/21 07:04:26;;;;;;;9.90;6.20;;;7.10;99.90;;;;;;5011961;28;20457;-83
2022/03/21 07:06:53;;;;;;;15.30;7.60;;;7.20;99.90;;;;;;5011782;28;20475;-83
2022/03/21 07:09:19;;;;;;;11.37;7.33;;;7.40;99.90;;;;;;5011968;28;20429;-83
2022/03/21 07:11:45;;;;;;;7.83;5.97;;;7.60;99.90;;;;;;5011726;28;20464;-84
2022/03/21 07:14:12;;;;;;;12.00;7.83;;;7.70;99.90;;;;;;5011829;28;20435;-83
2022/03/21 07:16:38;;;;;;;9.87;5.90;;;7.80;99.90;;;;;;5011667;28;20425;-84
2022/03/21 07:19:03;;;;;;;9.37;7.47;;;8.00;99.90;;;;;;5011899;28;20430;-84
2022/03/21 07:21:29;;;;;;;11.13;7.37;;;8.00;99.90;;;;;;5010903;28;20204;-83
2022/03/21 07:23:55;;;;;;;11.90;7.80;;;8.20;99.90;;;;;;5011343;28;20212;-83
2022/03/21 07:26:21;;;;;;;10.80;7.40;;;8.30;99.90;;;;;;5011270;28;20173;-83
2022/03/21 07:28:46;;;;;;;9.93;7.50;;;8.50;99.90;;;;;;5011542;28;20605;-83
2022/03/21 07:31:13;;;;;;;11.10;8.10;;;8.70;99.90;;;;;;5011470;28;20546;-83
2022/03/21 07:33:41;;;;;;;12.20;7.93;;;8.80;99.90;;;;;;5011461;28;20721;-83
2022/03/21 07:36:08;;;;;;;11.13;8.13;;;9.00;99.90;;;;;;5011327;28;20427;-84
2022/03/21 07:38:35;;;;;;;12.70;7.07;;;9.10;99.90;;;;;;5011244;28;20424;-83
2022/03/21 07:41:01;;;;;;;11.60;7.63;;;9.20;99.90;;;;;;5011329;28;20436;-83
2022/03/21 07:43:27;;;;;;;11.43;7.90;;;9.30;99.90;;;;;;5011077;28;20697;-83
2022/03/21 07:48:37;;;;;;;12.40;8.00;;;9.60;99.90;;;;;;5012785;28;20234;-83
2022/03/21 07:51:04;;;;;;;9.83;6.93;;;9.70;99.90;;;;;;5011143;28;20988;-83
2022/03/21 07:53:33;;;;;;;13.03;7.27;;;9.80;99.90;;;;;;4994914;28;20205;-83
2022/03/21 07:56:00;;;;;;;9.37;7.33;;;10.00;99.90;;;;;;5011146;28;20463;-84
2022/03/21 07:58:26;;;;;;;11.10;7.50;;;10.10;99.90;;;;;;5013363;28;20431;-83
2022/03/21 08:00:52;;;;;;;13.10;8.40;;;10.20;99.90;;;;;;5011012;28;20522;-83
2022/03/21 08:03:18;;;;;;;13.70;8.70;;;10.30;99.90;;;;;;5011151;28;20884;-84
2022/03/21 08:05:43;;;;;;;12.63;7.63;;;10.50;99.90;;;;;;5010946;28;20211;-83
2022/03/21 08:08:09;;;;;;;11.43;8.10;;;10.60;99.90;;;;;;5010905;28;20559;-83
2022/03/21 08:10:35;;;;;;;15.17;8.27;;;10.70;99.90;;;;;;5010915;28;20216;-83
2022/03/21 08:13:01;;;;;;;11.03;8.50;;;10.80;99.90;;;;;;5010960;28;20475;-83
2022/03/21 08:15:27;;;;;;;12.13;8.47;;;10.90;99.90;;;;;;5010580;28;20437;-84
2022/03/21 08:17:59;;;;;;;12.47;7.87;;;11.10;99.90;;;;;;4994440;28;20419;-83
2022/03/21 08:20:39;;;;;;;12.97;8.03;;;11.20;99.90;;;;;;5010714;28;20270;-83
2022/03/21 08:23:08;;;;;;;13.33;8.30;;;11.30;99.90;;;;;;5010837;28;20412;-83
2022/03/21 08:25:38;;;;;;;11.57;7.43;;;11.30;99.90;;;;;;5010767;28;20423;-83
2022/03/21 08:28:05;;;;;;;13.50;7.47;;;11.30;99.90;;;;;;5010611;28;20512;-83
2022/03/21 08:30:34;;;;;;;12.50;7.80;;;11.40;99.90;;;;;;5010653;28;20443;-83
2022/03/21 08:33:01;;;;;;;13.60;8.10;;;11.50;99.90;;;;;;4997484;28;20454;-83
2022/03/21 08:35:27;;;;;;;12.33;8.07;;;11.60;99.90;;;;;;5013591;28;20517;-83
2022/03/21 08:37:53;;;;;;;13.37;8.10;;;11.80;99.90;;;;;;5010766;28;20592;-83
2022/03/21 08:40:18;;;;;;;11.37;7.50;;;11.80;99.90;;;;;;5018173;28;20237;-84
2022/03/21 08:42:45;;;;;;;10.50;6.80;;;11.90;99.90;;;;;;5000931;28;20193;-84
2022/03/21 08:45:12;;;;;;;9.47;7.40;;;11.90;99.90;;;;;;5004531;28;20213;-83
2022/03/21 08:47:38;;;;;;;12.57;7.47;;;12.00;99.90;;;;;;4999916;28;20496;-83
2022/03/21 08:50:05;;;;;;;12.53;8.00;;;12.10;99.90;;;;;;5013747;28;20435;-84
2022/03/21 08:52:31;;;;;;;9.60;7.40;;;12.30;99.90;;;;;;5013573;28;20426;-83
2022/03/21 08:54:57;;;;;;;9.70;7.10;;;12.40;99.90;;;;;;5013811;28;20434;-83
2022/03/21 08:57:22;;;;;;;12.13;7.83;;;12.70;99.90;;;;;;5014076;28;20277;-84
2022/03/21 08:59:48;;;;;;;11.83;8.00;;;12.80;99.90;;;;;;5014002;28;20644;-84
2022/03/21 09:02:17;;;;;;;12.70;7.63;;;13.00;99.90;;;;;;5014286;28;20181;-83
2022/03/21 09:04:42;;;;;;;12.80;7.90;;;13.10;99.90;;;;;;5013908;28;20219;-83
2022/03/21 09:07:08;;;;;;;11.83;8.50;;;13.30;99.90;;;;;;5013892;28;20428;-83
2022/03/21 09:09:34;;;;;;;13.70;8.53;;;13.40;99.90;;;;;;5014171;28;20180;-83
2022/03/21 09:12:00;;;;;;;11.40;7.83;;;13.50;99.90;;;;;;5014003;28;20213;-83
2022/03/21 09:14:26;;;;;;;12.27;8.17;;;13.60;99.90;;;;;;5013862;28;20527;-84
2022/03/21 09:16:52;;;;;;;11.37;8.80;;;13.70;99.90;;;;;;5013741;28;20507;-84
2022/03/21 09:19:19;;;;;;;12.67;7.90;;;13.80;99.90;;;;;;5013804;28;20658;-83
2022/03/21 09:21:46;;;;;;;10.97;6.67;;;14.00;99.90;;;;;;5013693;28;20471;-84
2022/03/21 09:24:11;;;;;;;11.40;8.47;;;14.20;99.90;;;;;;5013684;28;20988;-84
2022/03/21 09:26:37;;;;;;;12.17;8.87;;;14.40;99.90;;;;;;5013560;28;20696;-83
2022/03/21 09:29:04;;;;;;;10.67;7.83;;;14.50;99.90;;;;;;5013741;28;20851;-84
2022/03/21 09:31:35;;;;;;;11.07;7.90;;;14.60;99.90;;;;;;5013427;28;20435;-84
2022/03/21 09:34:01;;;;;;;15.40;8.63;;;14.80;99.90;;;;;;5013626;28;20428;-83
2022/03/21 09:36:27;;;;;;;11.00;7.30;;;14.90;99.90;;;;;;5013165;28;20478;-84
2022/03/21 09:38:53;;;;;;;11.70;8.13;;;15.10;99.90;;;;;;5013549;28;20452;-84
2022/03/21 09:41:25;;;;;;;10.97;7.70;;;15.30;99.90;;;;;;5013471;28;20733;-84
2022/03/21 09:43:56;;;;;;;10.23;7.67;;;15.60;99.90;;;;;;5012279;28;20287;-84
2022/03/21 09:46:23;;;;;;;11.10;7.13;;;17.60;97.40;;;;;;5013153;28;20447;-84
2022/03/21 09:48:51;;;;;;;10.20;7.30;;;19.30;90.40;;;;;;5013272;28;20918;-84
2022/03/21 09:51:21;;;;;;;12.73;8.57;;;20.40;88.50;;;;;;5013257;28;20436;-84
2022/03/21 09:53:47;;;;;;;13.47;7.83;;;22.20;71.80;;;;;;5013328;28;20431;-84
2022/03/21 09:56:14;;;;;;;11.70;8.13;;;23.80;63.50;;;;;;5013105;28;20841;-85
2022/03/21 09:58:40;;;;;;;10.83;8.40;;;25.10;54.50;;;;;;5013011;28;20420;-85
2022/03/21 10:01:06;;;;;;;10.60;8.37;;;;;;;;;;5013145;28;21074;-85
2022/03/21 10:03:35;;;;;;;9.73;8.27;;;27.70;46.80;;;;;;5013103;28;20192;-85
2022/03/21 10:06:01;;;;;;;11.53;8.43;;;28.90;43.50;;;;;;5012771;28;20804;-86
2022/03/21 10:08:29;;;;;;;11.80;9.20;;;29.60;40.20;;;;;;5012847;28;20431;-85
2022/03/21 10:11:05;;;;;;;12.13;8.10;;;30.30;37.80;;;;;;5012724;28;20743;-85
2022/03/21 10:13:35;;;;;;;12.97;8.80;;;30.50;36.20;;;;;;5012922;28;20431;-85
2022/03/21 10:16:13;;;;;;;10.90;8.77;;;31.10;36.30;;;;;;5012737;28;20424;-85
2022/03/21 10:18:57;;;;;;;9.67;8.57;;;31.90;35.00;;;;;;5012900;28;20423;-86
2022/03/21 10:21:29;;;;;;;11.50;8.90;;;32.50;33.90;;;;;;5012595;28;20448;-85
2022/03/21 10:24:07;;;;;;;10.13;8.83;;;33.10;32.80;;;;;;5012601;28;20463;-86
2022/03/21 10:26:42;;;;;;;11.20;8.70;;;33.80;32.10;;;;;;5012430;28;20514;-86
2022/03/21 10:29:10;;;;;;;9.13;8.20;;;34.60;30.90;;;;;;5013978;28;20412;-86
2022/03/21 10:31:43;;;;;;;10.37;8.90;;;34.90;31.20;;;;;;5012297;28;20829;-86
2022/03/21 10:34:18;;;;;;;10.20;8.57;;;35.30;29.70;;;;;;5012381;28;20922;-86
2022/03/21 10:37:10;;;;;;;10.10;8.47;;;35.80;29.20;;;;;;5012225;28;20428;-86
2022/03/21 10:39:40;;;;;;;9.30;8.20;;;35.80;29.40;;;;;;5012419;28;20511;-86
2022/03/21 10:42:09;;;;;;;9.80;8.90;;;35.60;28.80;;;;;;5012322;28;20945;-86
2022/03/21 10:44:35;;;;;;;10.50;9.00;;;35.50;28.60;;;;;;5012056;28;20470;-86
2022/03/21 10:47:04;;;;;;;10.40;9.27;;;35.90;28.30;;;;;;5012039;28;20485;-86
2022/03/21 10:49:37;;;;;;;10.93;8.53;;;35.00;27.80;;;;;;5012253;28;20428;-86
2022/03/21 10:52:05;;;;;;;12.13;9.30;;;34.40;28.20;;;;;;5012152;28;20416;-85
2022/03/21 10:54:39;;;;;;;10.37;9.07;;;33.90;28.80;;;;;;5011869;28;20486;-85
2022/03/21 10:57:07;;;;;;;12.00;7.57;;;33.10;28.80;;;;;;5011697;28;20481;-86
2022/03/21 10:59:33;;;;;;;11.00;8.60;;;33.10;29.70;;;;;;5012039;28;20432;-85
2022/03/21 11:02:09;;;;;;;8.60;7.27;;;33.30;29.40;;;;;;5011835;28;20448;-85
2022/03/21 11:04:36;;;;;;;11.77;9.00;;;33.00;29.00;;;;;;5011825;28;20464;-86
2022/03/21 11:07:04;;;;;;;9.60;7.97;;;32.90;29.70;;;;;;5011902;28;20505;-86
2022/03/21 11:09:31;;;;;;;9.83;8.30;;;33.00;29.10;;;;;;5011784;28;20416;-86
2022/03/21 11:11:58;;;;;;;9.10;7.93;;;33.40;28.80;;;;;;5072322;23;20490;-66
2022/03/21 11:14:23;;;;;;;10.03;8.10;;;33.60;29.20;;;;;;5095020;28;20463;-67
2022/03/21 11:16:51;;;;;;;11.53;9.30;;;33.60;29.40;;;;;;5094664;28;20806;-67
2022/03/21 11:19:16;;;;;;;10.30;8.47;;;32.80;28.80;;;;;;5095011;28;20174;-66
2022/03/21 11:21:43;;;;;;;9.43;7.80;;;32.60;29.40;;;;;;5094816;28;20465;-67
2022/03/21 11:24:11;;;;;;;9.27;8.30;;;32.50;29.30;;;;;;5094836;28;20200;-66
2022/03/21 11:26:52;;;;;;;12.20;8.90;;;32.50;29.20;;;;;;5094413;28;20446;-67
2022/03/21 11:29:42;;;;;;;10.73;8.63;;;32.10;29.60;;;;;;5094864;28;20424;-66
2022/03/21 11:32:27;;;;;;;11.13;8.30;;;31.80;30.00;;;;;;5094837;28;20502;-66
2022/03/21 11:35:23;;;;;;;10.93;8.77;;;32.80;29.20;;;;;;5094661;28;20562;-66
2022/03/21 11:37:50;;;;;;;9.17;8.23;;;32.40;29.90;;;;;;5094537;28;20929;-66
2022/03/21 11:40:34;;;;;;;9.37;7.83;;;31.50;30.00;;;;;;5094738;28;20458;-67
2022/03/21 11:43:18;;;;;;;9.47;7.30;;;31.80;30.00;;;;;;5094436;28;20498;-67
2022/03/21 11:45:53;;;;;;;9.20;8.07;;;32.20;30.00;;;;;;5094529;28;20407;-67
2022/03/21 11:48:18;;;;;;;11.00;9.13;;;31.80;29.60;;;;;;5094141;28;20834;-67
2022/03/21 11:50:49;;;;;;;10.87;7.60;;;31.00;30.60;;;;;;5094510;28;20464;-67
2022/03/21 11:53:26;;;;;;;10.40;8.30;;;30.70;31.50;;;;;;5094479;28;20226;-67
2022/03/21 11:55:52;;;;;;;9.70;7.67;;;30.70;31.20;;;;;;5094392;28;20442;-67
2022/03/21 11:58:40;;;;;;;8.97;6.87;;;31.70;31.40;;;;;;5093951;28;20836;-66
2022/03/21 12:01:12;;;;;;;8.10;5.90;;;32.10;30.80;;;;;;5082046;28;20953;-66
2022/03/21 12:03:39;;;;;;;10.13;5.80;;;32.70;31.70;;;;;;5094072;28;20552;-67
2022/03/21 12:06:20;;;;;;;7.80;6.33;;;34.00;31.40;;;;;;5093503;28;20548;-67
2022/03/21 12:08:56;;;;;;;7.53;6.57;;;34.90;30.00;;;;;;5093950;28;20423;-67
2022/03/21 12:11:40;;;;;;;6.97;5.77;;;35.20;28.70;;;;;;5094064;28;20439;-67
2022/03/21 12:14:28;;;;;;;7.00;5.60;;;35.10;28.50;;;;;;5093852;28;20463;-67
2022/03/21 12:17:03;;;;;;;6.60;5.43;;;35.10;29.30;;;;;;5093705;28;20752;-67
2022/03/21 12:19:47;;;;;;;6.80;4.90;;;35.20;29.00;;;;;;5094089;28;20543;-67
2022/03/21 12:22:34;;;;;;;7.70;5.80;;;33.70;29.50;;;;;;5092532;28;20555;-66
2022/03/21 12:25:13;;;;;;;8.10;6.57;;;32.00;29.80;;;;;;5073839;28;20424;-66
2022/03/21 12:27:52;;;;;;;7.93;6.30;;;32.40;30.50;;;;;;5073269;28;20450;-67
2022/03/21 12:30:23;;;;;;;7.90;5.90;;;33.40;30.20;;;;;;5073700;28;20927;-66
2022/03/21 12:33:27;;;;;;;7.73;6.43;;;33.90;29.40;;;;;;5073287;28;20565;-66
2022/03/21 12:35:56;;;;;;;9.17;5.57;;;34.30;29.70;;;;;;5090493;28;20440;-66
2022/03/21 12:38:23;;;;;;;7.47;6.17;;;34.90;28.90;;;;;;5090086;28;20420;-67
2022/03/21 12:40:50;;;;;;;6.97;5.63;;;34.90;29.00;;;;;;5073561;28;20421;-67
2022/03/21 12:43:19;;;;;;;8.37;6.53;;;35.60;28.60;;;;;;5090150;28;20444;-67
2022/03/21 12:45:46;;;;;;;8.70;6.00;;;35.20;28.60;;;;;;5090256;28;20425;-67
2022/03/21 12:48:14;;;;;;;7.83;6.63;;;35.30;28.50;;;;;;5089850;28;20437;-67
2022/03/21 12:50:40;;;;;;;7.27;5.60;;;34.70;28.30;;;;;;5090215;28;20484;-67
2022/03/21 12:53:11;;;;;;;9.40;6.00;;;34.10;29.40;;;;;;5090344;28;20424;-67
2022/03/21 12:55:38;;;;;;;7.30;5.57;;;34.90;29.40;;;;;;5073352;28;20543;-67
2022/03/21 12:58:07;;;;;;;8.60;6.70;;;34.70;28.50;;;;;;5089801;28;20432;-67
2022/03/21 13:00:38;;;;;;;6.53;5.23;;;34.70;28.50;;;;;;5090017;28;20991;-66
2022/03/21 13:03:14;;;;;;;6.27;5.50;;;34.30;28.50;;;;;;5090244;28;20412;-66
2022/03/21 13:11:25;;;;;;;7.60;5.40;;;32.60;30.30;;;;;;5091719;28;20451;-66
2022/03/21 13:13:57;;;;;;;6.00;5.30;;;33.70;30.40;;;;;;5090268;28;20466;-66
2022/03/21 13:16:25;;;;;;;8.17;5.93;;;34.00;29.40;;;;;;5089730;28;20451;-67
2022/03/21 13:18:54;;;;;;;7.77;6.20;;;33.60;29.80;;;;;;5092677;28;20423;-67